EZY85VK EGCC-LXGB
Flight info
| Callsign | EZY85VK |
|---|---|
| Flight time | 2h 47m |
| Altitude | 33000 |
| Route | ASMIM1S ASMIM P16 NOKIN P17 BEPHE/N0448F360 DCT OSSEP DCT ELNIF DCT ZESPE DCT KLAKI DCT SALCO/N0454F370 DCT DELOG DCT CRISA DCT VULPE DCT MAR N864 PIMOS DCT |
| Aircraft | A320/M-SDE3FGHIRWY/LB1 |
Departure
| Time | 2026-05-04 09:21 |
|---|---|
| Airport | Manchester Airport (EGCC) |
Arrival
| Time | 2026-05-04 12:09 |
|---|---|
| Airport | Gibraltar Airport (LXGB) |
| Time | Latitude | Longitude | Altitude | Speed | Heading |
|---|---|---|---|---|---|
| 2026-05-04 09:03 | 53.36891 | -2.28789 | 255 ft | 0 kts | 135° |
| 2026-05-04 09:10 | 53.36895 | -2.28795 | 255 ft | 3 kts | 135° |
| 2026-05-04 09:10 | 53.36911 | -2.28822 | 255 ft | 2 kts | 135° |
| 2026-05-04 09:10 | 53.36926 | -2.28836 | 255 ft | 4 kts | 209° |
| 2026-05-04 09:10 | 53.36945 | -2.28810 | 255 ft | 4 kts | 225° |
| 2026-05-04 09:11 | 53.36953 | -2.28796 | 255 ft | 0 kts | 225° |
| 2026-05-04 09:14 | 53.36897 | -2.28889 | 255 ft | 13 kts | 225° |
| 2026-05-04 09:14 | 53.36823 | -2.29009 | 255 ft | 11 kts | 213° |
| 2026-05-04 09:14 | 53.36758 | -2.29042 | 255 ft | 9 kts | 175° |
| 2026-05-04 09:14 | 53.36714 | -2.28986 | 255 ft | 9 kts | 137° |
| 2026-05-04 09:15 | 53.36661 | -2.28906 | 255 ft | 9 kts | 153° |
| 2026-05-04 09:15 | 53.36612 | -2.28861 | 255 ft | 7 kts | 136° |
| 2026-05-04 09:15 | 53.36585 | -2.28793 | 255 ft | 9 kts | 117° |
| 2026-05-04 09:15 | 53.36534 | -2.28683 | 255 ft | 15 kts | 134° |
| 2026-05-04 09:17 | 53.35750 | -2.27874 | 247 ft | 25 kts | 185° |
| 2026-05-04 09:18 | 53.35621 | -2.27915 | 240 ft | 17 kts | 214° |
| 2026-05-04 09:18 | 53.35540 | -2.28072 | 234 ft | 19 kts | 226° |
| 2026-05-04 09:18 | 53.35418 | -2.28160 | 238 ft | 19 kts | 188° |
| 2026-05-04 09:18 | 53.35289 | -2.28227 | 232 ft | 21 kts | 210° |
| 2026-05-04 09:19 | 53.35181 | -2.28406 | 229 ft | 24 kts | 231° |
| 2026-05-04 09:19 | 53.35073 | -2.28629 | 229 ft | 25 kts | 231° |
| 2026-05-04 09:19 | 53.34952 | -2.28851 | 226 ft | 26 kts | 226° |
| 2026-05-04 09:19 | 53.34836 | -2.29058 | 218 ft | 27 kts | 228° |
| 2026-05-04 09:20 | 53.34710 | -2.29301 | 215 ft | 23 kts | 220° |
| 2026-05-04 09:20 | 53.34576 | -2.29321 | 214 ft | 18 kts | 154° |
| 2026-05-04 09:20 | 53.34564 | -2.29172 | 218 ft | 16 kts | 51° |
| 2026-05-04 09:20 | 53.34658 | -2.28979 | 222 ft | 39 kts | 51° |
| 2026-05-04 09:21 | 53.34972 | -2.28325 | 232 ft | 104 kts | 51° |
| 2026-05-04 09:21 | 53.35554 | -2.27122 | 255 ft | 155 kts | 51° |
| 2026-05-04 09:21 | 53.36227 | -2.25714 | 782 ft | 156 kts | 52° |
| 2026-05-04 09:21 | 53.36915 | -2.24289 | 1437 ft | 158 kts | 52° |
| 2026-05-04 09:22 | 53.37640 | -2.22795 | 1801 ft | 175 kts | 51° |
| 2026-05-04 09:22 | 53.38536 | -2.21224 | 2078 ft | 199 kts | 31° |
| 2026-05-04 09:22 | 53.39952 | -2.20814 | 2332 ft | 225 kts | 347° |
| 2026-05-04 09:22 | 53.41336 | -2.22248 | 2691 ft | 251 kts | 308° |
| 2026-05-04 09:23 | 53.41973 | -2.25011 | 3402 ft | 261 kts | 278° |
| 2026-05-04 09:23 | 53.42055 | -2.28075 | 4279 ft | 265 kts | 276° |
| 2026-05-04 09:23 | 53.42625 | -2.30997 | 5073 ft | 267 kts | 302° |
| 2026-05-04 09:23 | 53.43545 | -2.33719 | 5918 ft | 271 kts | 290° |
| 2026-05-04 09:25 | 53.33564 | -2.46651 | 10668 ft | 325 kts | 202° |
| 2026-05-04 09:25 | 53.31389 | -2.48057 | 11009 ft | 341 kts | 202° |
| 2026-05-04 09:26 | 53.29157 | -2.49494 | 11643 ft | 346 kts | 201° |
| 2026-05-04 09:26 | 53.26899 | -2.50944 | 12337 ft | 350 kts | 201° |
| 2026-05-04 09:26 | 53.24614 | -2.52409 | 13027 ft | 353 kts | 202° |
| 2026-05-04 09:26 | 53.22306 | -2.53889 | 13712 ft | 357 kts | 202° |
| 2026-05-04 09:27 | 53.19985 | -2.55376 | 14360 ft | 359 kts | 201° |
| 2026-05-04 09:27 | 53.17639 | -2.56872 | 14908 ft | 364 kts | 201° |
| 2026-05-04 09:27 | 53.15259 | -2.58387 | 15477 ft | 368 kts | 201° |
| 2026-05-04 09:27 | 53.12859 | -2.59915 | 16067 ft | 371 kts | 201° |
| 2026-05-04 09:28 | 53.10441 | -2.61452 | 16652 ft | 374 kts | 200° |
| 2026-05-04 09:28 | 53.08002 | -2.63002 | 17238 ft | 377 kts | 200° |
| 2026-05-04 09:28 | 53.05541 | -2.64564 | 17808 ft | 380 kts | 200° |
| 2026-05-04 09:28 | 53.03058 | -2.66136 | 18384 ft | 383 kts | 200° |
| 2026-05-04 09:29 | 53.00552 | -2.67724 | 18856 ft | 387 kts | 200° |
| 2026-05-04 09:29 | 52.98057 | -2.69304 | 19016 ft | 388 kts | 200° |
| 2026-05-04 09:29 | 52.95543 | -2.70892 | 19058 ft | 384 kts | 200° |
| 2026-05-04 09:29 | 52.93051 | -2.72461 | 19059 ft | 382 kts | 200° |
| 2026-05-04 09:30 | 52.90562 | -2.74027 | 19058 ft | 382 kts | 200° |
| 2026-05-04 09:30 | 52.88078 | -2.75587 | 19056 ft | 381 kts | 200° |
| 2026-05-04 09:30 | 52.85594 | -2.77148 | 19058 ft | 382 kts | 200° |
| 2026-05-04 09:30 | 52.83109 | -2.78697 | 19057 ft | 382 kts | 199° |
| 2026-05-04 09:31 | 52.80541 | -2.79764 | 19056 ft | 381 kts | 188° |
| 2026-05-04 09:31 | 52.77893 | -2.80034 | 19056 ft | 381 kts | 178° |
| 2026-05-04 09:31 | 52.75261 | -2.79538 | 19054 ft | 381 kts | 171° |
| 2026-05-04 09:31 | 52.72649 | -2.78829 | 19061 ft | 381 kts | 171° |
| 2026-05-04 09:32 | 52.70037 | -2.78130 | 19061 ft | 380 kts | 171° |
| 2026-05-04 09:32 | 52.67453 | -2.77440 | 19062 ft | 379 kts | 171° |
| 2026-05-04 09:34 | 52.49119 | -2.76831 | 19054 ft | 378 kts | 184° |
| 2026-05-04 09:34 | 52.46507 | -2.77061 | 19057 ft | 375 kts | 184° |
| 2026-05-04 09:34 | 52.43901 | -2.77289 | 19056 ft | 374 kts | 184° |
| 2026-05-04 09:34 | 52.41297 | -2.77513 | 19057 ft | 375 kts | 183° |
| 2026-05-04 09:35 | 52.38695 | -2.77736 | 19056 ft | 374 kts | 183° |
| 2026-05-04 09:35 | 52.36094 | -2.77961 | 19060 ft | 374 kts | 184° |
| 2026-05-04 09:35 | 52.33499 | -2.78188 | 19052 ft | 374 kts | 184° |
| 2026-05-04 09:35 | 52.30900 | -2.78412 | 19055 ft | 374 kts | 184° |
| 2026-05-04 09:37 | 52.12724 | -2.79946 | 19096 ft | 375 kts | 183° |
| 2026-05-04 09:37 | 52.10997 | -2.80093 | 19436 ft | 376 kts | 183° |
| 2026-05-04 09:38 | 52.07482 | -2.80397 | 20178 ft | 379 kts | 183° |
| 2026-05-04 09:38 | 52.05730 | -2.80552 | 20538 ft | 381 kts | 183° |
| 2026-05-04 09:38 | 52.03069 | -2.80788 | 21073 ft | 384 kts | 183° |
| 2026-05-04 09:38 | 52.00392 | -2.81024 | 21594 ft | 386 kts | 184° |
| 2026-05-04 09:39 | 51.97703 | -2.81256 | 22155 ft | 388 kts | 184° |
| 2026-05-04 09:39 | 51.94122 | -2.81556 | 22827 ft | 391 kts | 184° |
| 2026-05-04 09:39 | 51.92285 | -2.81707 | 23161 ft | 392 kts | 184° |
| 2026-05-04 09:39 | 51.89552 | -2.81932 | 23657 ft | 394 kts | 184° |
| 2026-05-04 09:40 | 51.85905 | -2.82239 | 24159 ft | 398 kts | 184° |
| 2026-05-04 09:40 | 51.84039 | -2.82462 | 24416 ft | 399 kts | 186° |
| 2026-05-04 09:40 | 51.81273 | -2.82947 | 24787 ft | 401 kts | 188° |
| 2026-05-04 09:40 | 51.78498 | -2.83555 | 25143 ft | 404 kts | 189° |
| 2026-05-04 09:41 | 51.75716 | -2.84223 | 25546 ft | 404 kts | 189° |
| 2026-05-04 09:42 | 51.56017 | -2.88580 | 27949 ft | 416 kts | 188° |
| 2026-05-04 09:43 | 51.53140 | -2.89182 | 28212 ft | 419 kts | 187° |
| 2026-05-04 09:43 | 51.50243 | -2.89794 | 28520 ft | 420 kts | 187° |
| 2026-05-04 09:43 | 51.47342 | -2.90411 | 28813 ft | 422 kts | 187° |
| 2026-05-04 09:43 | 51.44422 | -2.91032 | 29077 ft | 424 kts | 187° |
| 2026-05-04 09:44 | 51.41496 | -2.91650 | 29344 ft | 426 kts | 187° |
| 2026-05-04 09:44 | 51.38551 | -2.92268 | 29601 ft | 427 kts | 187° |
| 2026-05-04 09:44 | 51.35600 | -2.92887 | 29854 ft | 429 kts | 187° |
| 2026-05-04 09:46 | 51.14634 | -2.97277 | 31388 ft | 437 kts | 187° |
| 2026-05-04 09:46 | 51.11620 | -2.97904 | 31603 ft | 438 kts | 187° |
| 2026-05-04 09:46 | 51.08594 | -2.98529 | 31828 ft | 438 kts | 187° |
| 2026-05-04 09:47 | 51.05603 | -2.99148 | 32049 ft | 439 kts | 187° |
| 2026-05-04 09:47 | 51.02538 | -2.99788 | 32272 ft | 440 kts | 187° |
| 2026-05-04 09:49 | 50.81341 | -3.04161 | 33017 ft | 436 kts | 187° |
| 2026-05-04 09:49 | 50.78337 | -3.04779 | 33022 ft | 436 kts | 187° |
| 2026-05-04 09:51 | 50.57289 | -3.09082 | 33034 ft | 435 kts | 187° |
| 2026-05-04 09:51 | 50.51294 | -3.10301 | 33045 ft | 434 kts | 187° |
| 2026-05-04 09:52 | 50.45350 | -3.11508 | 33037 ft | 433 kts | 187° |
| 2026-05-04 09:52 | 50.39384 | -3.12714 | 33035 ft | 432 kts | 188° |
| 2026-05-04 09:53 | 50.33646 | -3.15376 | 33048 ft | 430 kts | 202° |
| 2026-05-04 09:53 | 50.28115 | -3.18908 | 33051 ft | 428 kts | 201° |
| 2026-05-04 09:54 | 50.22593 | -3.22388 | 33057 ft | 428 kts | 201° |
| 2026-05-04 09:54 | 50.17061 | -3.25875 | 33015 ft | 429 kts | 201° |
| 2026-05-04 09:55 | 50.11523 | -3.29363 | 33026 ft | 429 kts | 201° |
| 2026-05-04 09:55 | 50.05993 | -3.32835 | 33039 ft | 428 kts | 201° |
| 2026-05-04 09:56 | 50.00473 | -3.36300 | 33033 ft | 427 kts | 201° |
| 2026-05-04 09:56 | 49.94963 | -3.39748 | 33043 ft | 427 kts | 201° |
| 2026-05-04 09:57 | 49.89453 | -3.43183 | 33038 ft | 426 kts | 201° |
| 2026-05-04 09:57 | 49.83959 | -3.46602 | 33042 ft | 425 kts | 201° |
| 2026-05-04 09:58 | 49.78477 | -3.50011 | 33047 ft | 424 kts | 201° |
| 2026-05-04 09:58 | 49.72899 | -3.52862 | 33030 ft | 422 kts | 189° |
| 2026-05-04 10:00 | 49.49575 | -3.55213 | 33044 ft | 419 kts | 183° |
| 2026-05-04 10:04 | 49.08812 | -3.58957 | 33021 ft | 420 kts | 183° |
| 2026-05-04 10:04 | 49.02971 | -3.59504 | 33026 ft | 420 kts | 183° |
| 2026-05-04 10:05 | 48.97176 | -3.60028 | 33022 ft | 420 kts | 183° |
| 2026-05-04 10:05 | 48.91346 | -3.60556 | 33024 ft | 420 kts | 183° |
| 2026-05-04 10:06 | 48.85519 | -3.61088 | 33026 ft | 419 kts | 183° |
| 2026-05-04 10:06 | 48.79689 | -3.61616 | 33026 ft | 419 kts | 183° |
| 2026-05-04 10:08 | 48.59301 | -3.63453 | 33009 ft | 419 kts | 183° |
| 2026-05-04 10:08 | 48.53473 | -3.63972 | 33009 ft | 419 kts | 183° |
| 2026-05-04 10:09 | 48.47650 | -3.64483 | 32994 ft | 419 kts | 183° |
| 2026-05-04 10:09 | 48.41834 | -3.64990 | 32996 ft | 419 kts | 183° |
| 2026-05-04 10:10 | 48.36018 | -3.65510 | 33002 ft | 419 kts | 184° |
| 2026-05-04 10:10 | 48.30230 | -3.66041 | 32996 ft | 419 kts | 184° |
| 2026-05-04 10:11 | 48.24377 | -3.66566 | 32993 ft | 419 kts | 183° |
| 2026-05-04 10:11 | 48.18600 | -3.67071 | 32992 ft | 419 kts | 183° |
| 2026-05-04 10:12 | 48.12768 | -3.67577 | 32990 ft | 419 kts | 184° |
| 2026-05-04 10:12 | 48.06953 | -3.68095 | 32989 ft | 419 kts | 184° |
| 2026-05-04 10:13 | 48.01130 | -3.68610 | 32993 ft | 419 kts | 184° |
| 2026-05-04 10:13 | 47.95311 | -3.69108 | 32991 ft | 419 kts | 183° |
| 2026-05-04 10:14 | 47.89493 | -3.69614 | 32992 ft | 419 kts | 184° |
| 2026-05-04 10:16 | 47.66239 | -3.71636 | 32999 ft | 419 kts | 184° |
| 2026-05-04 10:16 | 47.60425 | -3.72139 | 33002 ft | 419 kts | 184° |
| 2026-05-04 10:17 | 47.54609 | -3.72643 | 33001 ft | 418 kts | 184° |
| 2026-05-04 10:19 | 47.31362 | -3.74639 | 32997 ft | 419 kts | 184° |
| 2026-05-04 10:19 | 47.25535 | -3.75133 | 32998 ft | 419 kts | 184° |
| 2026-05-04 10:20 | 47.19707 | -3.75621 | 33002 ft | 419 kts | 184° |
| 2026-05-04 10:20 | 47.13877 | -3.76121 | 33004 ft | 420 kts | 184° |
| 2026-05-04 10:21 | 47.08047 | -3.76617 | 33006 ft | 420 kts | 184° |
| 2026-05-04 10:21 | 47.02248 | -3.77104 | 33010 ft | 420 kts | 184° |
| 2026-05-04 10:22 | 46.93496 | -3.77839 | 33013 ft | 420 kts | 184° |
| 2026-05-04 10:23 | 46.87662 | -3.78324 | 33018 ft | 420 kts | 184° |
| 2026-05-04 10:25 | 46.65348 | -3.80201 | 33022 ft | 419 kts | 184° |
| 2026-05-04 10:25 | 46.59525 | -3.80683 | 33021 ft | 419 kts | 184° |
| 2026-05-04 10:26 | 46.53703 | -3.81165 | 33019 ft | 419 kts | 184° |
| 2026-05-04 10:26 | 46.47890 | -3.81653 | 33018 ft | 419 kts | 184° |
| 2026-05-04 10:27 | 46.42074 | -3.82136 | 33020 ft | 418 kts | 184° |
| 2026-05-04 10:27 | 46.36260 | -3.82618 | 33021 ft | 418 kts | 184° |
| 2026-05-04 10:28 | 46.30447 | -3.83093 | 33017 ft | 418 kts | 184° |
| 2026-05-04 10:28 | 46.24643 | -3.83571 | 33018 ft | 418 kts | 184° |
| 2026-05-04 10:29 | 46.18843 | -3.84048 | 33017 ft | 417 kts | 184° |
| 2026-05-04 10:29 | 46.13044 | -3.84514 | 33018 ft | 417 kts | 184° |
| 2026-05-04 10:30 | 46.07248 | -3.84979 | 33021 ft | 417 kts | 184° |
| 2026-05-04 10:30 | 46.01456 | -3.85460 | 33027 ft | 417 kts | 184° |
| 2026-05-04 10:31 | 45.95707 | -3.85928 | 33027 ft | 416 kts | 184° |
| 2026-05-04 10:32 | 45.75472 | -3.87553 | 33024 ft | 416 kts | 184° |
| 2026-05-04 10:33 | 45.69693 | -3.88012 | 33014 ft | 415 kts | 184° |
| 2026-05-04 10:33 | 45.63916 | -3.88479 | 33021 ft | 415 kts | 184° |
| 2026-05-04 10:34 | 45.58146 | -3.88948 | 33019 ft | 415 kts | 184° |
| 2026-05-04 10:34 | 45.52382 | -3.89411 | 33027 ft | 415 kts | 184° |
| 2026-05-04 10:35 | 45.46612 | -3.89872 | 33033 ft | 416 kts | 184° |
| 2026-05-04 10:35 | 45.40832 | -3.90338 | 33015 ft | 416 kts | 184° |
| 2026-05-04 10:36 | 45.35039 | -3.90788 | 33011 ft | 417 kts | 184° |
| 2026-05-04 10:36 | 45.29240 | -3.91259 | 33006 ft | 417 kts | 185° |
| 2026-05-04 10:37 | 45.23448 | -3.91718 | 33017 ft | 417 kts | 184° |
| 2026-05-04 10:37 | 45.17694 | -3.92166 | 33021 ft | 417 kts | 184° |
| 2026-05-04 10:39 | 44.97450 | -3.93753 | 33023 ft | 416 kts | 185° |
| 2026-05-04 10:40 | 44.91676 | -3.94209 | 33015 ft | 416 kts | 185° |
| 2026-05-04 10:40 | 44.85889 | -3.94664 | 33013 ft | 416 kts | 185° |
| 2026-05-04 10:41 | 44.80099 | -3.95118 | 33016 ft | 417 kts | 185° |
| 2026-05-04 10:41 | 44.74303 | -3.95568 | 33017 ft | 417 kts | 185° |
| 2026-05-04 10:42 | 44.68508 | -3.96013 | 33019 ft | 417 kts | 185° |
| 2026-05-04 10:42 | 44.62709 | -3.96458 | 33020 ft | 417 kts | 185° |
| 2026-05-04 10:43 | 44.56906 | -3.96894 | 33017 ft | 417 kts | 185° |
| 2026-05-04 10:45 | 44.33701 | -3.98680 | 33014 ft | 418 kts | 185° |
| 2026-05-04 10:45 | 44.27894 | -3.99221 | 33018 ft | 418 kts | 186° |
| 2026-05-04 10:46 | 44.22090 | -3.99934 | 33021 ft | 419 kts | 187° |
| 2026-05-04 10:46 | 44.16283 | -4.00652 | 33033 ft | 419 kts | 186° |
| 2026-05-04 10:47 | 44.10466 | -4.01331 | 33016 ft | 419 kts | 186° |
| 2026-05-04 10:47 | 44.04648 | -4.01988 | 33025 ft | 420 kts | 186° |
| 2026-05-04 10:49 | 43.81370 | -4.04619 | 33025 ft | 420 kts | 187° |
| 2026-05-04 10:50 | 43.75533 | -4.05269 | 33017 ft | 420 kts | 187° |
| 2026-05-04 10:52 | 43.52228 | -4.07895 | 33024 ft | 421 kts | 187° |
| 2026-05-04 10:52 | 43.46391 | -4.08550 | 33032 ft | 421 kts | 187° |
| 2026-05-04 10:54 | 43.22983 | -4.11141 | 33038 ft | 423 kts | 187° |
| 2026-05-04 10:56 | 42.99546 | -4.13731 | 33022 ft | 422 kts | 187° |
| 2026-05-04 10:57 | 42.93686 | -4.14375 | 33012 ft | 423 kts | 187° |
| 2026-05-04 10:57 | 42.87818 | -4.15021 | 33017 ft | 423 kts | 187° |
| 2026-05-04 10:58 | 42.81959 | -4.15663 | 33017 ft | 422 kts | 187° |
| 2026-05-04 10:58 | 42.76100 | -4.16301 | 33016 ft | 423 kts | 187° |
| 2026-05-04 10:59 | 42.70238 | -4.16936 | 33015 ft | 423 kts | 187° |
| 2026-05-04 10:59 | 42.64377 | -4.17578 | 33016 ft | 423 kts | 187° |
| 2026-05-04 11:00 | 42.58509 | -4.18222 | 33008 ft | 423 kts | 187° |
| 2026-05-04 11:02 | 42.35062 | -4.20751 | 33005 ft | 423 kts | 187° |
| 2026-05-04 11:05 | 41.91042 | -4.25465 | 33002 ft | 423 kts | 188° |
| 2026-05-04 11:06 | 41.85174 | -4.26075 | 32990 ft | 423 kts | 188° |
| 2026-05-04 11:06 | 41.79304 | -4.26693 | 32996 ft | 422 kts | 188° |
| 2026-05-04 11:10 | 41.39305 | -4.30916 | 33002 ft | 421 kts | 189° |
| 2026-05-04 11:12 | 41.15970 | -4.33330 | 33008 ft | 420 kts | 189° |
| 2026-05-04 11:12 | 41.10135 | -4.33940 | 33010 ft | 420 kts | 189° |
| 2026-05-04 11:13 | 41.04311 | -4.34542 | 32979 ft | 419 kts | 189° |
| 2026-05-04 11:13 | 40.98534 | -4.35144 | 32991 ft | 419 kts | 189° |
| 2026-05-04 11:14 | 40.92717 | -4.35743 | 33000 ft | 419 kts | 189° |
| 2026-05-04 11:16 | 40.69495 | -4.38127 | 32996 ft | 418 kts | 189° |
| 2026-05-04 11:16 | 40.63707 | -4.38711 | 32996 ft | 417 kts | 189° |
| 2026-05-04 11:17 | 40.57912 | -4.39306 | 32995 ft | 417 kts | 190° |
| 2026-05-04 11:19 | 40.34802 | -4.41654 | 32959 ft | 416 kts | 190° |
| 2026-05-04 11:19 | 40.29032 | -4.42239 | 32974 ft | 416 kts | 190° |
| 2026-05-04 11:20 | 40.23261 | -4.42828 | 32980 ft | 416 kts | 190° |
| 2026-05-04 11:20 | 40.17491 | -4.43411 | 32985 ft | 415 kts | 190° |
| 2026-05-04 11:22 | 39.94547 | -4.45711 | 32991 ft | 413 kts | 191° |
| 2026-05-04 11:23 | 39.88836 | -4.46287 | 32979 ft | 411 kts | 191° |
| 2026-05-04 11:25 | 39.68927 | -4.48257 | 32970 ft | 409 kts | 192° |
| 2026-05-04 11:25 | 39.63263 | -4.48821 | 32984 ft | 408 kts | 192° |
| 2026-05-04 11:27 | 39.37793 | -4.51347 | 33001 ft | 408 kts | 192° |
| 2026-05-04 11:28 | 39.32139 | -4.51898 | 33002 ft | 407 kts | 192° |
| 2026-05-04 11:28 | 39.26495 | -4.52466 | 33003 ft | 406 kts | 193° |
| 2026-05-04 11:29 | 39.20854 | -4.53030 | 32985 ft | 406 kts | 192° |
| 2026-05-04 11:29 | 39.15253 | -4.53565 | 32992 ft | 406 kts | 192° |
| 2026-05-04 11:33 | 38.76128 | -4.59345 | 32995 ft | 402 kts | 197° |
| 2026-05-04 11:33 | 38.70600 | -4.60496 | 33000 ft | 403 kts | 197° |
| 2026-05-04 11:34 | 38.65094 | -4.61625 | 33008 ft | 403 kts | 197° |
| 2026-05-04 11:34 | 38.59554 | -4.62772 | 33006 ft | 403 kts | 197° |
| 2026-05-04 11:35 | 38.54017 | -4.63916 | 32991 ft | 404 kts | 197° |
| 2026-05-04 11:35 | 38.48463 | -4.65057 | 32995 ft | 404 kts | 197° |
| 2026-05-04 11:36 | 38.42908 | -4.66195 | 33002 ft | 404 kts | 197° |
| 2026-05-04 11:36 | 38.37352 | -4.67338 | 33006 ft | 404 kts | 197° |
| 2026-05-04 11:37 | 38.31798 | -4.68482 | 33011 ft | 404 kts | 197° |
| 2026-05-04 11:37 | 38.26249 | -4.69634 | 33008 ft | 404 kts | 197° |
| 2026-05-04 11:38 | 38.20693 | -4.70773 | 33013 ft | 404 kts | 197° |
| 2026-05-04 11:38 | 38.15138 | -4.71910 | 33010 ft | 404 kts | 197° |
| 2026-05-04 11:39 | 38.09586 | -4.73043 | 33002 ft | 404 kts | 197° |
| 2026-05-04 11:41 | 37.90180 | -4.76985 | 33041 ft | 403 kts | 197° |
| 2026-05-04 11:41 | 37.84668 | -4.78101 | 32977 ft | 403 kts | 197° |
| 2026-05-04 11:42 | 37.79074 | -4.79240 | 33018 ft | 405 kts | 197° |
| 2026-05-04 11:42 | 37.73544 | -4.80357 | 33025 ft | 405 kts | 197° |
| 2026-05-04 11:43 | 37.67980 | -4.81484 | 33027 ft | 405 kts | 197° |
| 2026-05-04 11:43 | 37.62420 | -4.82601 | 33029 ft | 405 kts | 197° |
| 2026-05-04 11:44 | 37.56859 | -4.83720 | 33004 ft | 404 kts | 197° |
| 2026-05-04 11:44 | 37.51304 | -4.84842 | 33009 ft | 404 kts | 197° |
| 2026-05-04 11:45 | 37.45671 | -4.85978 | 33028 ft | 415 kts | 197° |
| 2026-05-04 11:45 | 37.39949 | -4.87129 | 33026 ft | 417 kts | 197° |
| 2026-05-04 11:46 | 37.34219 | -4.88276 | 33029 ft | 416 kts | 197° |
| 2026-05-04 11:46 | 37.28498 | -4.89413 | 33029 ft | 416 kts | 197° |
| 2026-05-04 11:47 | 37.22782 | -4.90549 | 33033 ft | 416 kts | 197° |
| 2026-05-04 11:47 | 37.17068 | -4.91690 | 33033 ft | 415 kts | 197° |
| 2026-05-04 11:48 | 37.11358 | -4.92822 | 33004 ft | 415 kts | 198° |
| 2026-05-04 11:48 | 37.05644 | -4.93892 | 33015 ft | 419 kts | 192° |
| 2026-05-04 11:49 | 36.99766 | -4.93732 | 33021 ft | 426 kts | 187° |
| 2026-05-04 11:49 | 36.93797 | -4.93398 | 33017 ft | 427 kts | 187° |
| 2026-05-04 11:50 | 36.87899 | -4.93068 | 32977 ft | 427 kts | 187° |
| 2026-05-04 11:50 | 36.84963 | -4.92908 | 32773 ft | 416 kts | 187° |
| 2026-05-04 11:50 | 36.82081 | -4.92751 | 31687 ft | 411 kts | 187° |
| 2026-05-04 11:50 | 36.79245 | -4.92603 | 30775 ft | 404 kts | 188° |
| 2026-05-04 11:51 | 36.76463 | -4.92458 | 29886 ft | 397 kts | 188° |
| 2026-05-04 11:51 | 36.73713 | -4.92315 | 28890 ft | 391 kts | 187° |
| 2026-05-04 11:51 | 36.71016 | -4.92176 | 27899 ft | 385 kts | 187° |
| 2026-05-04 11:51 | 36.68348 | -4.92041 | 26926 ft | 380 kts | 187° |
| 2026-05-04 11:52 | 36.66602 | -4.91954 | 26286 ft | 377 kts | 187° |
| 2026-05-04 11:52 | 36.63158 | -4.91782 | 25121 ft | 371 kts | 186° |
| 2026-05-04 11:52 | 36.60593 | -4.91652 | 24304 ft | 366 kts | 186° |
| 2026-05-04 11:52 | 36.58060 | -4.91528 | 23449 ft | 362 kts | 185° |
| 2026-05-04 11:53 | 36.55552 | -4.91402 | 22530 ft | 358 kts | 185° |
| 2026-05-04 11:53 | 36.53878 | -4.91316 | 21938 ft | 356 kts | 185° |
| 2026-05-04 11:53 | 36.51415 | -4.91191 | 21082 ft | 352 kts | 185° |
| 2026-05-04 11:53 | 36.48979 | -4.91068 | 20238 ft | 348 kts | 185° |
| 2026-05-04 11:55 | 36.32689 | -4.90236 | 15108 ft | 309 kts | 183° |
| 2026-05-04 11:55 | 36.30585 | -4.90122 | 14668 ft | 299 kts | 183° |
| 2026-05-04 11:56 | 36.28521 | -4.90013 | 14095 ft | 295 kts | 183° |
| 2026-05-04 11:56 | 36.26479 | -4.89910 | 13460 ft | 292 kts | 183° |
| 2026-05-04 11:56 | 36.24458 | -4.89810 | 12806 ft | 290 kts | 183° |
| 2026-05-04 11:56 | 36.22453 | -4.89709 | 12145 ft | 288 kts | 183° |
| 2026-05-04 11:57 | 36.20459 | -4.89607 | 11493 ft | 285 kts | 183° |
| 2026-05-04 11:57 | 36.18478 | -4.89507 | 10847 ft | 284 kts | 183° |
| 2026-05-04 11:57 | 36.16513 | -4.89398 | 10211 ft | 283 kts | 180° |
| 2026-05-04 11:57 | 36.14672 | -4.88634 | 9980 ft | 277 kts | 151° |
| 2026-05-04 11:58 | 36.13318 | -4.86959 | 9544 ft | 282 kts | 128° |
| 2026-05-04 11:58 | 36.12280 | -4.84844 | 8963 ft | 293 kts | 117° |
| 2026-05-04 11:58 | 36.11861 | -4.82375 | 8557 ft | 297 kts | 88° |
| 2026-05-04 11:58 | 36.12337 | -4.79919 | 8173 ft | 295 kts | 65° |
| 2026-05-04 11:59 | 36.13392 | -4.77775 | 7822 ft | 289 kts | 44° |
| 2026-05-04 11:59 | 36.14936 | -4.76271 | 7705 ft | 282 kts | 22° |
| 2026-05-04 11:59 | 36.16785 | -4.75588 | 7585 ft | 275 kts | 359° |
| 2026-05-04 11:59 | 36.18650 | -4.75788 | 7462 ft | 266 kts | 338° |
| 2026-05-04 12:00 | 36.20273 | -4.76776 | 7245 ft | 257 kts | 317° |
| 2026-05-04 12:00 | 36.21406 | -4.78409 | 6966 ft | 247 kts | 294° |
| 2026-05-04 12:00 | 36.21903 | -4.80395 | 6710 ft | 242 kts | 274° |
| 2026-05-04 12:00 | 36.21765 | -4.82463 | 6458 ft | 242 kts | 259° |
| 2026-05-04 12:01 | 36.21454 | -4.84512 | 6138 ft | 242 kts | 260° |
| 2026-05-04 12:01 | 36.21146 | -4.86558 | 5876 ft | 242 kts | 260° |
| 2026-05-04 12:02 | 36.19311 | -4.98739 | 4390 ft | 240 kts | 261° |
| 2026-05-04 12:03 | 36.19005 | -5.00766 | 4143 ft | 239 kts | 261° |
| 2026-05-04 12:03 | 36.18700 | -5.02782 | 3905 ft | 237 kts | 261° |
| 2026-05-04 12:03 | 36.18398 | -5.04789 | 3666 ft | 237 kts | 261° |
| 2026-05-04 12:03 | 36.18095 | -5.06792 | 3424 ft | 235 kts | 261° |
| 2026-05-04 12:04 | 36.17796 | -5.08757 | 3181 ft | 229 kts | 261° |
| 2026-05-04 12:04 | 36.17506 | -5.10655 | 2950 ft | 221 kts | 261° |
| 2026-05-04 12:04 | 36.17225 | -5.12497 | 2730 ft | 215 kts | 261° |
| 2026-05-04 12:04 | 36.16952 | -5.14288 | 2509 ft | 208 kts | 261° |
| 2026-05-04 12:05 | 36.16687 | -5.16020 | 2300 ft | 202 kts | 261° |
| 2026-05-04 12:05 | 36.16429 | -5.17703 | 2096 ft | 197 kts | 260° |
| 2026-05-04 12:05 | 36.16178 | -5.19345 | 1898 ft | 192 kts | 260° |
| 2026-05-04 12:05 | 36.15934 | -5.20948 | 1713 ft | 188 kts | 260° |
| 2026-05-04 12:06 | 36.15697 | -5.22505 | 1539 ft | 178 kts | 260° |
| 2026-05-04 12:06 | 36.15496 | -5.23935 | 1342 ft | 161 kts | 264° |
| 2026-05-04 12:06 | 36.15429 | -5.25252 | 1180 ft | 150 kts | 266° |
| 2026-05-04 12:06 | 36.15397 | -5.26469 | 1139 ft | 135 kts | 266° |
| 2026-05-04 12:07 | 36.15363 | -5.27612 | 1053 ft | 131 kts | 266° |
| 2026-05-04 12:07 | 36.15324 | -5.28732 | 808 ft | 130 kts | 265° |
| 2026-05-04 12:07 | 36.15287 | -5.29841 | 658 ft | 128 kts | 266° |
| 2026-05-04 12:07 | 36.15254 | -5.30950 | 506 ft | 130 kts | 265° |
| 2026-05-04 12:08 | 36.15220 | -5.32064 | 333 ft | 130 kts | 267° |
| 2026-05-04 12:08 | 36.15173 | -5.33177 | 200 ft | 129 kts | 268° |
| 2026-05-04 12:08 | 36.15139 | -5.34275 | 29 ft | 127 kts | 267° |
| 2026-05-04 12:08 | 36.15108 | -5.35199 | 19 ft | 74 kts | 268° |
| 2026-05-04 12:09 | 36.15099 | -5.35501 | 20 ft | 15 kts | 267° |
| 2026-05-04 12:09 | 36.15089 | -5.35634 | 17 ft | 13 kts | 261° |
| 2026-05-04 12:09 | 36.15089 | -5.35687 | 17 ft | 2 kts | 10° |
| 2026-05-04 12:09 | 36.15097 | -5.35644 | 17 ft | 10 kts | 90° |
| 2026-05-04 12:10 | 36.15100 | -5.35524 | 20 ft | 18 kts | 86° |
| 2026-05-04 12:10 | 36.15105 | -5.35333 | 20 ft | 26 kts | 89° |
| 2026-05-04 12:10 | 36.15112 | -5.35087 | 19 ft | 29 kts | 87° |
| 2026-05-04 12:10 | 36.15121 | -5.34847 | 19 ft | 27 kts | 87° |
| 2026-05-04 12:11 | 36.15144 | -5.34696 | 18 ft | 15 kts | 41° |
| 2026-05-04 12:11 | 36.15213 | -5.34677 | 19 ft | 7 kts | 25° |
| 2026-05-04 12:11 | 36.15229 | -5.34629 | 21 ft | 5 kts | 56° |
| 2026-05-04 12:11 | 36.15259 | -5.34625 | 18 ft | 4 kts | 355° |
| 2026-05-04 12:12 | 36.15283 | -5.34627 | 18 ft | 3 kts | 357° |
| 2026-05-04 12:12 | 36.15301 | -5.34629 | 18 ft | 2 kts | 357° |
| 2026-05-04 12:12 | 36.15305 | -5.34629 | 18 ft | 0 kts | 357° |